Airfield :
LOGIN :

Register | Disclaimer

   EN    FR    IT 

 










Legend :    VFR   Marginal VFR   IFR   Intensive IFR   Very Intensive IFR
Visi :
Ceiling :
>= 8 km
>= 3000ft
5 to 8 km
1000 to 3000 ft
1500m to 5 km
500 to 1000 ft
800 to 1500m
200 to 500 ft
< 800m
< 200 ft
Symbols :   Thunderstorms  Fog  Heavy snow  Heavy precipitations  Wind > 20 kt
SIGMETs :     Misc.  Thunderstorms  Icing  Turbulence  Mountain Waves  Volcanic Ashes






- Airport Elevation : 20 ft


EBFN - Koksijde

CURRENT METAR :
  • 271325Z 33012KT 8000 -RA FEW005 BKN008 BKN020 03/02 Q0996 GRN GRN BECMG WHT

EXPIRED METARs :
  • 271255Z 30006KT 8000 -RA FEW004 BKN007 BKN018 02/02 Q0996 GRN GRN BECMG WHT
  • 271235Z 01006KT 6000 -RASN FEW004 BKN007 BKN010 02/01 Q0995 GRN GRN BECMG WHT
  • 271221Z 01005KT 4000 -RASN SCT004 BKN006 BKN010 01/01 Q0995 YLO YLO TEMPO AMB
  • 271155Z 02005KT 3500 RASN SCT004 BKN008 BKN010 01/01 Q0995 YLO YLO TEMPO AMB
  • 271151Z 03006KT 3500 RASN SCT004 BKN008 BKN010 01/01 Q0994 YLO YLO TEMPO AMB
  • 271133Z 06007KT 3500 -RASN SCT003 BKN006 BKN010 01/01 Q0994 YLO YLO TEMPO AMB
  • 271116Z 07007G18KT 3500 RASN SCT003 BKN006 BKN010 01/01 Q0994 YLO YLO TEMPO AMB
  • 271055Z 07008KT 3500 -RASN SCT004 BKN006 BKN010 01/01 Q0994 YLO YLO TEMPO AMB
  • 271049Z 08008KT 3500 -RASN SCT004 BKN006 BKN010 02/01 Q0994 YLO YLO TEMPO AMB

TAF TAF EBFN
Valid from the 27 at 13:00 until the 27 at 22:00 UTC


271141Z 2713/2722 06008KT 5000 -RA SCT007 BKN012
TEMPO 2113/2714 VRB03KT 3000 -RASN SCT003 OVC006
TEMPO 2713/2714 1000 RASN SCT001 OVC003
BECMG 2714/2716 33018G30KT 9999 FEW010 SCT020
BECMG 2716/2718 FEW025



MET'MAP, your aeronautical weather chart ! - Copyright ORBIFLY December 2007 - Disclaimer

ORBIFLY MET'MAP TEAM :

Programming & Development : Alexandra Zaïnal
Concept & original design : Baudouin d'Aumeries
Assistance for programming : Marc-Olivier Méhu
Technical & hardware support : Manuel Goepfert

Contact : metmap@orbifly.com




SOURCES & CREDITS :

   NOAA